sensor_id;sensor_type;location;lat;lon;timestamp;pressure;altitude;pressure_sealevel;temperature;humidity
11335;BME280;5722;42.620;23.374;2023-07-31T00:01:53;93724.94;;;20.09;100.00
11335;BME280;5722;42.620;23.374;2023-07-31T00:04:28;93673.56;;;19.75;100.00
11335;BME280;5722;42.620;23.374;2023-07-31T00:07:00;93735.00;;;19.98;100.00
11335;BME280;5722;42.620;23.374;2023-07-31T00:09:50;93735.28;;;19.97;100.00
11335;BME280;5722;42.620;23.374;2023-07-31T00:12:24;93740.94;;;19.95;100.00
11335;BME280;5722;42.620;23.374;2023-07-31T00:15:06;93740.63;;;19.97;100.00
11335;BME280;5722;42.620;23.374;2023-07-31T00:17:34;93743.16;;;20.07;100.00
11335;BME280;5722;42.620;23.374;2023-07-31T00:20:04;93741.34;;;20.03;100.00
11335;BME280;5722;42.620;23.374;2023-07-31T00:22:37;93734.78;;;19.95;100.00
11335;BME280;5722;42.620;23.374;2023-07-31T00:25:07;93750.34;;;19.93;100.00
11335;BME280;5722;42.620;23.374;2023-07-31T00:27:37;93744.03;;;19.84;100.00
11335;BME280;5722;42.620;23.374;2023-07-31T00:30:30;93751.63;;;19.77;100.00
11335;BME280;5722;42.620;23.374;2023-07-31T00:32:58;93733.13;;;19.80;100.00
11335;BME280;5722;42.620;23.374;2023-07-31T00:35:42;93725.31;;;19.84;100.00
11335;BME280;5722;42.620;23.374;2023-07-31T00:38:17;93723.81;;;19.78;100.00
11335;BME280;5722;42.620;23.374;2023-07-31T00:40:51;93718.31;;;19.69;100.00
11335;BME280;5722;42.620;23.374;2023-07-31T00:43:34;93713.25;;;19.67;100.00
11335;BME280;5722;42.620;23.374;2023-07-31T00:46:06;93715.00;;;19.77;100.00
11335;BME280;5722;42.620;23.374;2023-07-31T00:48:54;93525.00;;;18.56;100.00
11335;BME280;5722;42.620;23.374;2023-07-31T00:51:32;93672.81;;;19.50;100.00
11335;BME280;5722;42.620;23.374;2023-07-31T00:54:17;93689.81;;;19.59;100.00
11335;BME280;5722;42.620;23.374;2023-07-31T00:56:53;93714.19;;;19.77;100.00
11335;BME280;5722;42.620;23.374;2023-07-31T00:59:24;93704.91;;;19.50;100.00
11335;BME280;5722;42.620;23.374;2023-07-31T01:01:53;61999.44;;;-143.45;100.00
11335;BME280;5722;42.620;23.374;2023-07-31T01:04:30;61999.44;;;-143.45;100.00
11335;BME280;5722;42.620;23.374;2023-07-31T01:07:36;61999.44;;;-143.45;100.00
11335;BME280;5722;42.620;23.374;2023-07-31T01:10:15;61999.44;;;-143.45;100.00
11335;BME280;5722;42.620;23.374;2023-07-31T01:12:55;61999.44;;;-143.45;100.00
11335;BME280;5722;42.620;23.374;2023-07-31T01:15:31;61999.44;;;-143.45;100.00
11335;BME280;5722;42.620;23.374;2023-07-31T01:17:59;61999.44;;;-143.45;100.00
11335;BME280;5722;42.620;23.374;2023-07-31T01:20:37;61999.44;;;-143.45;100.00
11335;BME280;5722;42.620;23.374;2023-07-31T01:23:41;61999.44;;;-143.45;100.00
11335;BME280;5722;42.620;23.374;2023-07-31T01:26:28;61999.44;;;-143.45;100.00
11335;BME280;5722;42.620;23.374;2023-07-31T01:29:17;61999.44;;;-143.45;100.00
11335;BME280;5722;42.620;23.374;2023-07-31T01:31:51;61999.44;;;-143.45;100.00
11335;BME280;5722;42.620;23.374;2023-07-31T01:34:31;61999.44;;;-143.45;100.00
11335;BME280;5722;42.620;23.374;2023-07-31T01:37:04;61999.44;;;-143.45;100.00
11335;BME280;5722;42.620;23.374;2023-07-31T01:39:41;61999.44;;;-143.45;100.00
11335;BME280;5722;42.620;23.374;2023-07-31T01:42:14;61999.44;;;-143.45;100.00
11335;BME280;5722;42.620;23.374;2023-07-31T01:44:44;61999.44;;;-143.45;100.00
11335;BME280;5722;42.620;23.374;2023-07-31T01:47:15;61999.44;;;-143.45;100.00
11335;BME280;5722;42.620;23.374;2023-07-31T01:49:45;61999.44;;;-143.45;100.00
11335;BME280;5722;42.620;23.374;2023-07-31T01:52:20;61999.44;;;-143.45;100.00
11335;BME280;5722;42.620;23.374;2023-07-31T01:54:50;61999.44;;;-143.45;100.00
11335;BME280;5722;42.620;23.374;2023-07-31T01:57:19;61999.44;;;-143.45;100.00
11335;BME280;5722;42.620;23.374;2023-07-31T01:59:52;61999.44;;;-143.45;100.00
11335;BME280;5722;42.620;23.374;2023-07-31T02:02:21;61999.44;;;-143.45;100.00
11335;BME280;5722;42.620;23.374;2023-07-31T02:04:54;61999.44;;;-143.45;100.00
11335;BME280;5722;42.620;23.374;2023-07-31T02:07:26;61999.44;;;-143.45;100.00
11335;BME280;5722;42.620;23.374;2023-07-31T02:10:28;61999.44;;;-143.45;100.00
11335;BME280;5722;42.620;23.374;2023-07-31T02:13:22;61999.44;;;-143.45;100.00
11335;BME280;5722;42.620;23.374;2023-07-31T02:15:55;61999.44;;;-143.45;100.00
11335;BME280;5722;42.620;23.374;2023-07-31T02:18:26;61999.44;;;-143.45;100.00
11335;BME280;5722;42.620;23.374;2023-07-31T02:20:57;61999.44;;;-143.45;100.00
11335;BME280;5722;42.620;23.374;2023-07-31T02:23:41;61999.44;;;-143.45;100.00
11335;BME280;5722;42.620;23.374;2023-07-31T02:26:11;61999.44;;;-143.45;100.00
11335;BME280;5722;42.620;23.374;2023-07-31T02:28:55;61999.44;;;-143.45;100.00
11335;BME280;5722;42.620;23.374;2023-07-31T02:31:38;61999.44;;;-143.45;100.00
11335;BME280;5722;42.620;23.374;2023-07-31T02:34:13;61999.44;;;-143.45;100.00
11335;BME280;5722;42.620;23.374;2023-07-31T02:36:43;61999.44;;;-143.45;100.00
11335;BME280;5722;42.620;23.374;2023-07-31T02:39:14;61999.44;;;-143.45;100.00
11335;BME280;5722;42.620;23.374;2023-07-31T02:41:46;61999.44;;;-143.45;100.00
11335;BME280;5722;42.620;23.374;2023-07-31T02:44:42;61999.44;;;-143.45;100.00
11335;BME280;5722;42.620;23.374;2023-07-31T02:47:10;61999.44;;;-143.45;100.00
11335;BME280;5722;42.620;23.374;2023-07-31T02:49:41;61999.44;;;-143.45;100.00
11335;BME280;5722;42.620;23.374;2023-07-31T02:52:14;61999.44;;;-143.45;100.00
11335;BME280;5722;42.620;23.374;2023-07-31T02:54:58;61999.44;;;-143.45;100.00
11335;BME280;5722;42.620;23.374;2023-07-31T02:57:26;61999.44;;;-143.45;100.00
11335;BME280;5722;42.620;23.374;2023-07-31T03:02:50;61999.44;;;-143.45;100.00
11335;BME280;5722;42.620;23.374;2023-07-31T03:05:21;61999.44;;;-143.45;100.00
11335;BME280;5722;42.620;23.374;2023-07-31T03:08:15;61999.44;;;-143.45;100.00
11335;BME280;5722;42.620;23.374;2023-07-31T03:10:47;61999.44;;;-143.45;100.00
11335;BME280;5722;42.620;23.374;2023-07-31T03:13:24;61999.44;;;-143.45;100.00
11335;BME280;5722;42.620;23.374;2023-07-31T03:16:06;61999.44;;;-143.45;100.00
11335;BME280;5722;42.620;23.374;2023-07-31T03:18:37;61999.44;;;-143.45;100.00
11335;BME280;5722;42.620;23.374;2023-07-31T03:21:04;61999.44;;;-143.45;100.00
11335;BME280;5722;42.620;23.374;2023-07-31T03:23:35;61999.44;;;-143.45;100.00
11335;BME280;5722;42.620;23.374;2023-07-31T03:26:10;61999.44;;;-143.45;100.00
11335;BME280;5722;42.620;23.374;2023-07-31T03:28:40;61999.44;;;-143.45;100.00
11335;BME280;5722;42.620;23.374;2023-07-31T03:31:14;61999.44;;;-143.45;100.00
11335;BME280;5722;42.620;23.374;2023-07-31T03:33:45;61999.44;;;-143.45;100.00
11335;BME280;5722;42.620;23.374;2023-07-31T03:36:18;61999.44;;;-143.45;100.00
11335;BME280;5722;42.620;23.374;2023-07-31T03:38:52;61999.44;;;-143.45;100.00
11335;BME280;5722;42.620;23.374;2023-07-31T03:41:22;61999.44;;;-143.45;100.00
11335;BME280;5722;42.620;23.374;2023-07-31T03:43:52;61999.44;;;-143.45;100.00
11335;BME280;5722;42.620;23.374;2023-07-31T03:46:29;61999.44;;;-143.45;100.00
11335;BME280;5722;42.620;23.374;2023-07-31T03:49:05;61999.44;;;-143.45;100.00
11335;BME280;5722;42.620;23.374;2023-07-31T03:51:47;61999.44;;;-143.45;100.00
11335;BME280;5722;42.620;23.374;2023-07-31T03:54:23;61999.44;;;-143.45;100.00
11335;BME280;5722;42.620;23.374;2023-07-31T03:57:01;61999.44;;;-143.45;100.00
11335;BME280;5722;42.620;23.374;2023-07-31T03:59:30;61999.44;;;-143.45;100.00
11335;BME280;5722;42.620;23.374;2023-07-31T04:02:01;61999.44;;;-143.45;100.00
11335;BME280;5722;42.620;23.374;2023-07-31T04:05:03;61999.44;;;-143.45;100.00
11335;BME280;5722;42.620;23.374;2023-07-31T04:07:36;61999.44;;;-143.45;100.00
11335;BME280;5722;42.620;23.374;2023-07-31T04:10:12;61999.44;;;-143.45;100.00
11335;BME280;5722;42.620;23.374;2023-07-31T04:12:48;61999.44;;;-143.45;100.00
11335;BME280;5722;42.620;23.374;2023-07-31T04:15:22;61999.44;;;-143.45;100.00
11335;BME280;5722;42.620;23.374;2023-07-31T04:18:25;61999.44;;;-143.45;100.00
11335;BME280;5722;42.620;23.374;2023-07-31T04:31:24;61999.44;;;-143.45;100.00
11335;BME280;5722;42.620;23.374;2023-07-31T04:37:35;61999.44;;;-143.45;100.00
11335;BME280;5722;42.620;23.374;2023-07-31T04:40:30;61999.44;;;-143.45;100.00
11335;BME280;5722;42.620;23.374;2023-07-31T04:46:35;61999.44;;;-143.45;100.00
11335;BME280;5722;42.620;23.374;2023-07-31T04:52:29;61999.44;;;-143.45;100.00
11335;BME280;5722;42.620;23.374;2023-07-31T04:58:58;61999.44;;;-143.45;100.00
11335;BME280;5722;42.620;23.374;2023-07-31T05:02:15;61999.44;;;-143.45;100.00
11335;BME280;5722;42.620;23.374;2023-07-31T05:04:53;61999.44;;;-143.45;100.00
11335;BME280;5722;42.620;23.374;2023-07-31T05:11:06;61999.44;;;-143.45;100.00
11335;BME280;5722;42.620;23.374;2023-07-31T05:13:41;61999.44;;;-143.45;100.00
11335;BME280;5722;42.620;23.374;2023-07-31T05:16:20;61999.44;;;-143.45;100.00
11335;BME280;5722;42.620;23.374;2023-07-31T05:18:56;61999.44;;;-143.45;100.00
11335;BME280;5722;42.620;23.374;2023-07-31T05:21:29;61999.44;;;-143.45;100.00
11335;BME280;5722;42.620;23.374;2023-07-31T05:24:07;61999.44;;;-143.45;100.00
11335;BME280;5722;42.620;23.374;2023-07-31T05:26:50;61999.44;;;-143.45;100.00
11335;BME280;5722;42.620;23.374;2023-07-31T05:29:44;61999.44;;;-143.45;100.00
11335;BME280;5722;42.620;23.374;2023-07-31T05:32:18;61999.44;;;-143.45;100.00
11335;BME280;5722;42.620;23.374;2023-07-31T05:34:56;61999.44;;;-143.45;100.00
11335;BME280;5722;42.620;23.374;2023-07-31T05:37:24;61999.44;;;-143.45;100.00
11335;BME280;5722;42.620;23.374;2023-07-31T05:39:59;61999.44;;;-143.45;100.00
11335;BME280;5722;42.620;23.374;2023-07-31T05:42:55;61999.44;;;-143.45;100.00
11335;BME280;5722;42.620;23.374;2023-07-31T05:45:29;61999.44;;;-143.45;100.00
11335;BME280;5722;42.620;23.374;2023-07-31T05:48:22;61999.44;;;-143.45;100.00
11335;BME280;5722;42.620;23.374;2023-07-31T05:57:33;61999.44;;;-143.45;100.00
11335;BME280;5722;42.620;23.374;2023-07-31T06:00:27;61999.44;;;-143.45;100.00
11335;BME280;5722;42.620;23.374;2023-07-31T06:03:40;61999.44;;;-143.45;100.00
11335;BME280;5722;42.620;23.374;2023-07-31T06:06:49;61999.44;;;-143.45;100.00
11335;BME280;5722;42.620;23.374;2023-07-31T06:09:35;61999.44;;;-143.45;100.00
11335;BME280;5722;42.620;23.374;2023-07-31T06:15:47;61999.44;;;-143.45;100.00
11335;BME280;5722;42.620;23.374;2023-07-31T06:18:45;61999.44;;;-143.45;100.00
11335;BME280;5722;42.620;23.374;2023-07-31T06:21:37;61999.44;;;-143.45;100.00
11335;BME280;5722;42.620;23.374;2023-07-31T06:24:27;61999.44;;;-143.45;100.00
11335;BME280;5722;42.620;23.374;2023-07-31T06:27:13;61999.44;;;-143.45;100.00
11335;BME280;5722;42.620;23.374;2023-07-31T06:29:49;61999.44;;;-143.45;100.00
11335;BME280;5722;42.620;23.374;2023-07-31T06:36:00;61999.44;;;-143.45;100.00
11335;BME280;5722;42.620;23.374;2023-07-31T06:38:37;61999.44;;;-143.45;100.00
11335;BME280;5722;42.620;23.374;2023-07-31T06:41:10;61999.44;;;-143.45;100.00
11335;BME280;5722;42.620;23.374;2023-07-31T06:43:47;61999.44;;;-143.45;100.00
11335;BME280;5722;42.620;23.374;2023-07-31T06:46:27;61999.44;;;-143.45;100.00
11335;BME280;5722;42.620;23.374;2023-07-31T06:49:03;61999.44;;;-143.45;100.00
11335;BME280;5722;42.620;23.374;2023-07-31T06:51:53;61999.44;;;-143.45;100.00
11335;BME280;5722;42.620;23.374;2023-07-31T06:54:39;61999.44;;;-143.45;100.00
11335;BME280;5722;42.620;23.374;2023-07-31T06:57:09;61999.44;;;-143.45;100.00
11335;BME280;5722;42.620;23.374;2023-07-31T06:59:54;61999.44;;;-143.45;100.00
11335;BME280;5722;42.620;23.374;2023-07-31T07:02:30;61999.44;;;-143.45;100.00
11335;BME280;5722;42.620;23.374;2023-07-31T07:05:07;61999.44;;;-143.45;100.00
11335;BME280;5722;42.620;23.374;2023-07-31T07:08:00;61999.44;;;-143.45;100.00
11335;BME280;5722;42.620;23.374;2023-07-31T07:10:43;61999.44;;;-143.45;100.00
11335;BME280;5722;42.620;23.374;2023-07-31T07:13:23;61999.44;;;-143.45;100.00
11335;BME280;5722;42.620;23.374;2023-07-31T07:16:07;61999.44;;;-143.45;100.00
11335;BME280;5722;42.620;23.374;2023-07-31T07:18:42;61999.44;;;-143.45;100.00
11335;BME280;5722;42.620;23.374;2023-07-31T07:21:37;61999.44;;;-143.45;100.00
11335;BME280;5722;42.620;23.374;2023-07-31T07:27:26;61999.44;;;-143.45;100.00
11335;BME280;5722;42.620;23.374;2023-07-31T07:29:56;61999.44;;;-143.45;100.00
11335;BME280;5722;42.620;23.374;2023-07-31T07:32:29;61999.44;;;-143.45;100.00
11335;BME280;5722;42.620;23.374;2023-07-31T07:35:01;61999.44;;;-143.45;100.00
11335;BME280;5722;42.620;23.374;2023-07-31T07:37:30;61999.44;;;-143.45;100.00
11335;BME280;5722;42.620;23.374;2023-07-31T07:40:05;61999.44;;;-143.45;100.00
11335;BME280;5722;42.620;23.374;2023-07-31T07:42:46;61999.44;;;-143.45;100.00
11335;BME280;5722;42.620;23.374;2023-07-31T07:45:21;61999.44;;;-143.45;100.00
11335;BME280;5722;42.620;23.374;2023-07-31T07:48:04;61999.44;;;-143.45;100.00
11335;BME280;5722;42.620;23.374;2023-07-31T07:50:44;61999.44;;;-143.45;100.00
11335;BME280;5722;42.620;23.374;2023-07-31T07:53:15;61999.44;;;-143.45;100.00
11335;BME280;5722;42.620;23.374;2023-07-31T07:55:57;61999.44;;;-143.45;100.00
11335;BME280;5722;42.620;23.374;2023-07-31T07:58:43;61999.44;;;-143.45;100.00
11335;BME280;5722;42.620;23.374;2023-07-31T08:01:26;61999.44;;;-143.45;100.00
11335;BME280;5722;42.620;23.374;2023-07-31T08:04:09;61999.44;;;-143.45;100.00
11335;BME280;5722;42.620;23.374;2023-07-31T08:06:59;61999.44;;;-143.45;100.00
11335;BME280;5722;42.620;23.374;2023-07-31T08:09:31;61999.44;;;-143.45;100.00
11335;BME280;5722;42.620;23.374;2023-07-31T08:12:07;61999.44;;;-143.45;100.00
11335;BME280;5722;42.620;23.374;2023-07-31T08:14:46;61999.44;;;-143.45;100.00
11335;BME280;5722;42.620;23.374;2023-07-31T08:17:19;61999.44;;;-143.45;100.00
11335;BME280;5722;42.620;23.374;2023-07-31T08:19:52;61999.44;;;-143.45;100.00
11335;BME280;5722;42.620;23.374;2023-07-31T08:22:26;61999.44;;;-143.45;100.00
11335;BME280;5722;42.620;23.374;2023-07-31T08:24:55;61999.44;;;-143.45;100.00
11335;BME280;5722;42.620;23.374;2023-07-31T08:27:23;61999.44;;;-143.45;100.00
11335;BME280;5722;42.620;23.374;2023-07-31T08:29:54;61999.44;;;-143.45;100.00
11335;BME280;5722;42.620;23.374;2023-07-31T08:32:25;61999.44;;;-143.45;100.00
11335;BME280;5722;42.620;23.374;2023-07-31T08:35:00;61999.44;;;-143.45;100.00
11335;BME280;5722;42.620;23.374;2023-07-31T08:37:43;61999.44;;;-143.45;100.00
11335;BME280;5722;42.620;23.374;2023-07-31T08:40:11;61999.44;;;-143.45;100.00
11335;BME280;5722;42.620;23.374;2023-07-31T08:42:51;61999.44;;;-143.45;100.00
11335;BME280;5722;42.620;23.374;2023-07-31T08:45:37;61999.44;;;-143.45;100.00
11335;BME280;5722;42.620;23.374;2023-07-31T08:48:07;61999.44;;;-143.45;100.00
11335;BME280;5722;42.620;23.374;2023-07-31T08:50:37;61999.44;;;-143.45;100.00
11335;BME280;5722;42.620;23.374;2023-07-31T08:53:08;61999.44;;;-143.45;100.00
11335;BME280;5722;42.620;23.374;2023-07-31T08:55:38;61999.44;;;-143.45;100.00
11335;BME280;5722;42.620;23.374;2023-07-31T08:58:08;61999.44;;;-143.45;100.00
11335;BME280;5722;42.620;23.374;2023-07-31T09:00:48;61999.44;;;-143.45;100.00
11335;BME280;5722;42.620;23.374;2023-07-31T09:03:24;61999.44;;;-143.45;100.00
11335;BME280;5722;42.620;23.374;2023-07-31T09:06:21;61999.44;;;-143.45;100.00
11335;BME280;5722;42.620;23.374;2023-07-31T09:09:01;61999.44;;;-143.45;100.00
11335;BME280;5722;42.620;23.374;2023-07-31T09:11:30;61999.44;;;-143.45;100.00
11335;BME280;5722;42.620;23.374;2023-07-31T09:14:12;61999.44;;;-143.45;100.00
11335;BME280;5722;42.620;23.374;2023-07-31T09:17:13;61999.44;;;-143.45;100.00
11335;BME280;5722;42.620;23.374;2023-07-31T09:19:41;61999.44;;;-143.45;100.00
11335;BME280;5722;42.620;23.374;2023-07-31T09:22:08;61999.44;;;-143.45;100.00
11335;BME280;5722;42.620;23.374;2023-07-31T09:24:36;61999.44;;;-143.45;100.00
11335;BME280;5722;42.620;23.374;2023-07-31T09:27:09;61999.44;;;-143.45;100.00
11335;BME280;5722;42.620;23.374;2023-07-31T09:29:45;61999.44;;;-143.45;100.00
11335;BME280;5722;42.620;23.374;2023-07-31T09:36:21;61999.44;;;-143.45;100.00
11335;BME280;5722;42.620;23.374;2023-07-31T09:38:51;61999.44;;;-143.45;100.00
11335;BME280;5722;42.620;23.374;2023-07-31T09:41:53;61999.44;;;-143.45;100.00
11335;BME280;5722;42.620;23.374;2023-07-31T09:44:37;61999.44;;;-143.45;100.00
11335;BME280;5722;42.620;23.374;2023-07-31T09:47:21;61999.44;;;-143.45;100.00
11335;BME280;5722;42.620;23.374;2023-07-31T09:49:54;61999.44;;;-143.45;100.00
11335;BME280;5722;42.620;23.374;2023-07-31T09:52:27;61999.44;;;-143.45;100.00
11335;BME280;5722;42.620;23.374;2023-07-31T09:55:00;61999.44;;;-143.45;100.00
11335;BME280;5722;42.620;23.374;2023-07-31T09:57:30;61999.44;;;-143.45;100.00
11335;BME280;5722;42.620;23.374;2023-07-31T10:00:13;61999.44;;;-143.45;100.00
11335;BME280;5722;42.620;23.374;2023-07-31T10:02:41;61999.44;;;-143.45;100.00
11335;BME280;5722;42.620;23.374;2023-07-31T10:05:13;61999.44;;;-143.45;100.00
11335;BME280;5722;42.620;23.374;2023-07-31T10:07:51;61999.44;;;-143.45;100.00
11335;BME280;5722;42.620;23.374;2023-07-31T10:10:29;61999.44;;;-143.45;100.00
11335;BME280;5722;42.620;23.374;2023-07-31T10:12:59;61999.44;;;-143.45;100.00
11335;BME280;5722;42.620;23.374;2023-07-31T10:15:29;61999.44;;;-143.45;100.00
11335;BME280;5722;42.620;23.374;2023-07-31T10:17:59;61999.44;;;-143.45;100.00
11335;BME280;5722;42.620;23.374;2023-07-31T10:20:33;61999.44;;;-143.45;100.00
11335;BME280;5722;42.620;23.374;2023-07-31T10:23:18;61999.44;;;-143.45;100.00
11335;BME280;5722;42.620;23.374;2023-07-31T10:25:49;61999.44;;;-143.45;100.00
11335;BME280;5722;42.620;23.374;2023-07-31T10:28:17;61999.44;;;-143.45;100.00
11335;BME280;5722;42.620;23.374;2023-07-31T10:30:47;61999.44;;;-143.45;100.00
11335;BME280;5722;42.620;23.374;2023-07-31T10:33:18;61999.44;;;-143.45;100.00
11335;BME280;5722;42.620;23.374;2023-07-31T10:35:50;61999.44;;;-143.45;100.00
11335;BME280;5722;42.620;23.374;2023-07-31T10:38:29;61999.44;;;-143.45;100.00
11335;BME280;5722;42.620;23.374;2023-07-31T10:41:08;61999.44;;;-143.45;100.00
11335;BME280;5722;42.620;23.374;2023-07-31T10:43:42;61999.44;;;-143.45;100.00
11335;BME280;5722;42.620;23.374;2023-07-31T10:46:25;61999.44;;;-143.45;100.00
11335;BME280;5722;42.620;23.374;2023-07-31T10:49:01;61999.44;;;-143.45;100.00
11335;BME280;5722;42.620;23.374;2023-07-31T10:51:35;61999.44;;;-143.45;100.00
11335;BME280;5722;42.620;23.374;2023-07-31T10:54:15;61999.44;;;-143.45;100.00
11335;BME280;5722;42.620;23.374;2023-07-31T10:56:47;61999.44;;;-143.45;100.00
11335;BME280;5722;42.620;23.374;2023-07-31T10:59:26;61999.44;;;-143.45;100.00
11335;BME280;5722;42.620;23.374;2023-07-31T11:01:56;61999.44;;;-143.45;100.00
11335;BME280;5722;42.620;23.374;2023-07-31T11:04:25;61999.44;;;-143.45;100.00
11335;BME280;5722;42.620;23.374;2023-07-31T11:06:56;61999.44;;;-143.45;100.00
11335;BME280;5722;42.620;23.374;2023-07-31T11:09:28;61999.44;;;-143.45;100.00
11335;BME280;5722;42.620;23.374;2023-07-31T11:14:53;61999.44;;;-143.45;100.00
11335;BME280;5722;42.620;23.374;2023-07-31T11:17:26;61999.44;;;-143.45;100.00
11335;BME280;5722;42.620;23.374;2023-07-31T11:19:55;61999.44;;;-143.45;100.00
11335;BME280;5722;42.620;23.374;2023-07-31T11:22:25;61999.44;;;-143.45;100.00
11335;BME280;5722;42.620;23.374;2023-07-31T11:24:56;61999.44;;;-143.45;100.00
11335;BME280;5722;42.620;23.374;2023-07-31T11:27:27;61999.44;;;-143.45;100.00
11335;BME280;5722;42.620;23.374;2023-07-31T11:30:11;61999.44;;;-143.45;100.00
11335;BME280;5722;42.620;23.374;2023-07-31T11:32:44;61999.44;;;-143.45;100.00
11335;BME280;5722;42.620;23.374;2023-07-31T11:35:12;61999.44;;;-143.45;100.00
11335;BME280;5722;42.620;23.374;2023-07-31T11:37:43;61999.44;;;-143.45;100.00
11335;BME280;5722;42.620;23.374;2023-07-31T11:40:27;61999.44;;;-143.45;100.00
11335;BME280;5722;42.620;23.374;2023-07-31T11:42:57;61999.44;;;-143.45;100.00
11335;BME280;5722;42.620;23.374;2023-07-31T11:45:26;61999.44;;;-143.45;100.00
11335;BME280;5722;42.620;23.374;2023-07-31T11:48:03;61999.44;;;-143.45;100.00
11335;BME280;5722;42.620;23.374;2023-07-31T11:50:34;61999.44;;;-143.45;100.00
11335;BME280;5722;42.620;23.374;2023-07-31T11:53:07;61999.44;;;-143.45;100.00
11335;BME280;5722;42.620;23.374;2023-07-31T11:55:40;61999.44;;;-143.45;100.00
11335;BME280;5722;42.620;23.374;2023-07-31T11:58:18;61999.44;;;-143.45;100.00
11335;BME280;5722;42.620;23.374;2023-07-31T12:01:05;61999.44;;;-143.45;100.00
11335;BME280;5722;42.620;23.374;2023-07-31T12:03:38;61999.44;;;-143.45;100.00
11335;BME280;5722;42.620;23.374;2023-07-31T12:06:15;61999.44;;;-143.45;100.00
11335;BME280;5722;42.620;23.374;2023-07-31T12:08:51;61999.44;;;-143.45;100.00
11335;BME280;5722;42.620;23.374;2023-07-31T12:11:42;61999.44;;;-143.45;100.00
11335;BME280;5722;42.620;23.374;2023-07-31T12:14:20;61999.44;;;-143.45;100.00
11335;BME280;5722;42.620;23.374;2023-07-31T12:17:01;61999.44;;;-143.45;100.00
11335;BME280;5722;42.620;23.374;2023-07-31T12:19:30;61999.44;;;-143.45;100.00
11335;BME280;5722;42.620;23.374;2023-07-31T12:21:59;61999.44;;;-143.45;100.00
11335;BME280;5722;42.620;23.374;2023-07-31T12:24:28;61999.44;;;-143.45;100.00
11335;BME280;5722;42.620;23.374;2023-07-31T12:27:09;61999.44;;;-143.45;100.00
11335;BME280;5722;42.620;23.374;2023-07-31T12:29:38;61999.44;;;-143.45;100.00
11335;BME280;5722;42.620;23.374;2023-07-31T12:32:19;61999.44;;;-143.45;100.00
11335;BME280;5722;42.620;23.374;2023-07-31T12:34:47;61999.44;;;-143.45;100.00
11335;BME280;5722;42.620;23.374;2023-07-31T12:37:17;61999.44;;;-143.45;100.00
11335;BME280;5722;42.620;23.374;2023-07-31T12:40:01;61999.44;;;-143.45;100.00
11335;BME280;5722;42.620;23.374;2023-07-31T12:42:34;61999.44;;;-143.45;100.00
11335;BME280;5722;42.620;23.374;2023-07-31T12:45:05;61999.44;;;-143.45;100.00
11335;BME280;5722;42.620;23.374;2023-07-31T12:47:33;61999.44;;;-143.45;100.00
11335;BME280;5722;42.620;23.374;2023-07-31T12:50:01;61999.44;;;-143.45;100.00
11335;BME280;5722;42.620;23.374;2023-07-31T12:52:33;61999.44;;;-143.45;100.00
11335;BME280;5722;42.620;23.374;2023-07-31T12:55:00;61999.44;;;-143.45;100.00
11335;BME280;5722;42.620;23.374;2023-07-31T12:57:28;61999.44;;;-143.45;100.00
11335;BME280;5722;42.620;23.374;2023-07-31T13:00:00;61999.44;;;-143.45;100.00
11335;BME280;5722;42.620;23.374;2023-07-31T13:02:28;61999.44;;;-143.45;100.00
11335;BME280;5722;42.620;23.374;2023-07-31T13:04:57;61999.44;;;-143.45;100.00
11335;BME280;5722;42.620;23.374;2023-07-31T13:07:30;61999.44;;;-143.45;100.00
11335;BME280;5722;42.620;23.374;2023-07-31T13:10:00;61999.44;;;-143.45;100.00
11335;BME280;5722;42.620;23.374;2023-07-31T13:12:35;61999.44;;;-143.45;100.00
11335;BME280;5722;42.620;23.374;2023-07-31T13:15:09;61999.44;;;-143.45;100.00
11335;BME280;5722;42.620;23.374;2023-07-31T13:17:39;61999.44;;;-143.45;100.00
11335;BME280;5722;42.620;23.374;2023-07-31T13:20:12;61999.44;;;-143.45;100.00
11335;BME280;5722;42.620;23.374;2023-07-31T13:22:43;61999.44;;;-143.45;100.00
11335;BME280;5722;42.620;23.374;2023-07-31T13:25:31;61999.44;;;-143.45;100.00
11335;BME280;5722;42.620;23.374;2023-07-31T13:28:03;61999.44;;;-143.45;100.00
11335;BME280;5722;42.620;23.374;2023-07-31T13:30:33;61999.44;;;-143.45;100.00
11335;BME280;5722;42.620;23.374;2023-07-31T13:33:05;61999.44;;;-143.45;100.00
11335;BME280;5722;42.620;23.374;2023-07-31T13:35:34;61999.44;;;-143.45;100.00
11335;BME280;5722;42.620;23.374;2023-07-31T13:38:18;61999.44;;;-143.45;100.00
11335;BME280;5722;42.620;23.374;2023-07-31T13:40:50;61999.44;;;-143.45;100.00
11335;BME280;5722;42.620;23.374;2023-07-31T13:43:17;61999.44;;;-143.45;100.00
11335;BME280;5722;42.620;23.374;2023-07-31T13:45:46;61999.44;;;-143.45;100.00
11335;BME280;5722;42.620;23.374;2023-07-31T13:48:14;61999.44;;;-143.45;100.00
11335;BME280;5722;42.620;23.374;2023-07-31T13:50:45;61999.44;;;-143.45;100.00
11335;BME280;5722;42.620;23.374;2023-07-31T13:53:13;61999.44;;;-143.45;100.00
11335;BME280;5722;42.620;23.374;2023-07-31T13:55:43;61999.44;;;-143.45;100.00
11335;BME280;5722;42.620;23.374;2023-07-31T13:58:11;61999.44;;;-143.45;100.00
11335;BME280;5722;42.620;23.374;2023-07-31T14:00:40;61999.44;;;-143.45;100.00
11335;BME280;5722;42.620;23.374;2023-07-31T14:03:15;61999.44;;;-143.45;100.00
11335;BME280;5722;42.620;23.374;2023-07-31T14:05:51;61999.44;;;-143.45;100.00
11335;BME280;5722;42.620;23.374;2023-07-31T14:08:19;61999.44;;;-143.45;100.00
11335;BME280;5722;42.620;23.374;2023-07-31T14:10:52;61999.44;;;-143.45;100.00
11335;BME280;5722;42.620;23.374;2023-07-31T14:13:21;61999.44;;;-143.45;100.00